Observation data for Fluvanna on 02/16/2017      Previous  Date  Next       Current Mesonet Observations  Soil Data  Daily Summary Page  Observations in Plain Language
KFVS 160600Z 22005KT 06/M02 A3013 RMK A01 T00561024  RH  057%=      5-min Rain = 0
KFVS 160605Z 22004KT 06/M02 A3013 RMK A01 T00561024  RH  057%=      5-min Rain = 0
KFVS 160610Z 22004KT 05/M02 A3013 RMK A01 T00541024  RH  058%=      5-min Rain = 0
KFVS 160615Z 22004KT 05/M02 A3013 RMK A01 T00541024  RH  058%=      5-min Rain = 0
KFVS 160620Z 22004KT 05/M02 A3013 RMK A01 T00541024  RH  058%=      5-min Rain = 0
KFVS 160625Z 22004KT 05/M02 A3013 RMK A01 T00541024  RH  058%=      5-min Rain = 0
KFVS 160630Z 22005KT 05/M02 A3013 RMK A01 T00521023  RH  059%=      5-min Rain = 0
KFVS 160635Z 22005KT 05/M02 A3012 RMK A01 T00501023  RH  060%=      5-min Rain = 0
KFVS 160640Z 22005KT 05/M02 A3012 RMK A01 T00481023  RH  061%=      5-min Rain = 0
KFVS 160645Z 22005KT 05/M02 A3012 RMK A01 T00461021  RH  062%=      5-min Rain = 0
KFVS 160650Z 22005KT 04/M02 A3012 RMK A01 T00441021  RH  063%=      5-min Rain = 0
KFVS 160655Z 22005KT 04/M02 A3012 RMK A01 T00421020  RH  065%=      5-min Rain = 0
KFVS 160700Z 22005KT 04/M02 A3012 RMK A01 T00381021  RH  066%=      5-min Rain = 0
KFVS 160705Z 22006KT 04/M02 A3012 RMK A01 T00351020  RH  068%=      5-min Rain = 0
KFVS 160710Z 22006KT 03/M02 A3012 RMK A01 T00331019  RH  070%=      5-min Rain = 0
KFVS 160715Z 22006KT 03/M02 A3012 RMK A01 T00321019  RH  070%=      5-min Rain = 0
KFVS 160720Z 22007KT 03/M02 A3012 RMK A01 T00301018  RH  071%=      5-min Rain = 0
KFVS 160725Z 23008KT 03/M02 A3012 RMK A01 T00281018  RH  073%=      5-min Rain = 0
KFVS 160730Z 23008KT 03/M02 A3012 RMK A01 T00261017  RH  074%=      5-min Rain = 0
KFVS 160735Z 22008KT 03/M02 A3012 RMK A01 T00251016  RH  075%=      5-min Rain = 0
KFVS 160740Z 22009KT 02/M02 A3012 RMK A01 T00241016  RH  076%=      5-min Rain = 0
KFVS 160745Z 22008KT 02/M02 A3012 RMK A01 T00231016  RH  076%=      5-min Rain = 0
KFVS 160750Z 22008KT 02/M02 A3012 RMK A01 T00221017  RH  076%=      5-min Rain = 0
KFVS 160755Z 22008KT 02/M02 A3012 RMK A01 T00201018  RH  077%=      5-min Rain = 0
KFVS 160800Z 23008KT 02/M02 A3012 RMK A01 T00211017  RH  077%=      5-min Rain = 0
KFVS 160805Z 22009KT 02/M02 A3012 RMK A01 T00221017  RH  076%=      5-min Rain = 0
KFVS 160810Z 23009KT 02/M02 A3012 RMK A01 T00211018  RH  076%=      5-min Rain = 0
KFVS 160815Z 22009KT 02/M02 A3012 RMK A01 T00211017  RH  077%=      5-min Rain = 0
KFVS 160820Z 23009KT 02/M02 A3011 RMK A01 T00211017  RH  077%=      5-min Rain = 0
KFVS 160825Z 22009KT 02/M02 A3011 RMK A01 T00241017  RH  075%=      5-min Rain = 0
KFVS 160830Z 22009KT 03/M02 A3011 RMK A01 T00251017  RH  074%=      5-min Rain = 0
KFVS 160835Z 22008KT 03/M02 A3011 RMK A01 T00251017  RH  075%=      5-min Rain = 0
KFVS 160840Z 22008KT 03/M02 A3011 RMK A01 T00251017  RH  074%=      5-min Rain = 0
KFVS 160845Z 22008KT 03/M02 A3011 RMK A01 T00251017  RH  074%=      5-min Rain = 0
KFVS 160850Z 22007KT 03/M02 A3011 RMK A01 T00251017  RH  074%=      5-min Rain = 0
KFVS 160855Z 22007KT 02/M02 A3011 RMK A01 T00241017  RH  075%=      5-min Rain = 0
KFVS 160900Z 23006KT 02/M02 A301 RMK A01 T00231018  RH  075%=      5-min Rain = 0
KFVS 160905Z 23006KT 02/M02 A301 RMK A01 T00231018  RH  075%=      5-min Rain = 0
KFVS 160910Z 23007KT 02/M02 A301 RMK A01 T00231018  RH  075%=      5-min Rain = 0
KFVS 160915Z 23007KT 02/M02 A301 RMK A01 T00221017  RH  076%=      5-min Rain = 0
KFVS 160920Z 23007KT 02/M02 A301 RMK A01 T00221018  RH  076%=      5-min Rain = 0
KFVS 160925Z 23007KT 02/M02 A301 RMK A01 T00221018  RH  076%=      5-min Rain = 0
KFVS 160930Z 22007KT 02/M02 A301 RMK A01 T00211018  RH  076%=      5-min Rain = 0
KFVS 160935Z 22008KT 02/M02 A3009 RMK A01 T00231017  RH  076%=      5-min Rain = 0
KFVS 160940Z 22007KT 02/M02 A3009 RMK A01 T00241017  RH  075%=      5-min Rain = 0
KFVS 160945Z 22008KT 02/M02 A3009 RMK A01 T00241017  RH  075%=      5-min Rain = 0
KFVS 160950Z 22007KT 02/M02 A3009 RMK A01 T00241017  RH  075%=      5-min Rain = 0
KFVS 160955Z 22007KT 02/M02 A3009 RMK A01 T00241016  RH  076%=      5-min Rain = 0
KFVS 161000Z 22008KT 02/M02 A3009 RMK A01 T00231016  RH  076%=      5-min Rain = 0
KFVS 161005Z 22007KT 02/M02 A3009 RMK A01 T00211016  RH  077%=      5-min Rain = 0
KFVS 161010Z 22007KT 02/M02 A3009 RMK A01 T00211016  RH  078%=      5-min Rain = 0
KFVS 161015Z 22008KT 02/M02 A3009 RMK A01 T00201015  RH  078%=      5-min Rain = 0
KFVS 161020Z 23008KT 02/M02 A3008 RMK A01 T00201015  RH  079%=      5-min Rain = 0
KFVS 161025Z 22007KT 02/M02 A3008 RMK A01 T00201015  RH  079%=      5-min Rain = 0
KFVS 161030Z 22007KT 02/M02 A3008 RMK A01 T00201015  RH  078%=      5-min Rain = 0
KFVS 161035Z 22007KT 02/M02 A3008 RMK A01 T00211015  RH  078%=      5-min Rain = 0
KFVS 161040Z 22007KT 02/M02 A3008 RMK A01 T00201015  RH  078%=      5-min Rain = 0
KFVS 161045Z 21007KT 02/M02 A3008 RMK A01 T00221015  RH  078%=      5-min Rain = 0
KFVS 161050Z 21008KT 02/M02 A3008 RMK A01 T00211015  RH  078%=      5-min Rain = 0
KFVS 161055Z 21007KT 02/M02 A3008 RMK A01 T00201015  RH  078%=      5-min Rain = 0
KFVS 161100Z 21007KT 02/M02 A3008 RMK A01 T00191015  RH  079%=      5-min Rain = 0
KFVS 161105Z 21007KT 02/M01 A3008 RMK A01 T00201014  RH  079%=      5-min Rain = 0
KFVS 161110Z 22007KT 02/M02 A3008 RMK A01 T00201015  RH  079%=      5-min Rain = 0
KFVS 161115Z 22007KT 02/M02 A3008 RMK A01 T00201015  RH  079%=      5-min Rain = 0
KFVS 161120Z 22007KT 02/M02 A3008 RMK A01 T00201015  RH  079%=      5-min Rain = 0
KFVS 161125Z 22007KT 02/M02 A3008 RMK A01 T00191015  RH  079%=      5-min Rain = 0
KFVS 161130Z 22007KT 02/M02 A3008 RMK A01 T00201015  RH  079%=      5-min Rain = 0
KFVS 161135Z 22007KT 02/M02 A3008 RMK A01 T00191016  RH  079%=      5-min Rain = 0
KFVS 161140Z 22006KT 02/M02 A3008 RMK A01 T00171016  RH  079%=      5-min Rain = 0
KFVS 161145Z 22007KT 02/M02 A3008 RMK A01 T00171016  RH  079%=      5-min Rain = 0
KFVS 161150Z 22007KT 02/M02 A3008 RMK A01 T00181016  RH  079%=      5-min Rain = 0
KFVS 161155Z 22007KT 02/M02 A3008 RMK A01 T00171016  RH  079%=      5-min Rain = 0
KFVS 161200Z 22007KT 02/M02 A3008 RMK A01 T00171017  RH  079%=      5-min Rain = 0
KFVS 161205Z 22007KT 02/M02 A3008 RMK A01 T00161017  RH  079%=      5-min Rain = 0
KFVS 161210Z 22007KT 02/M02 A3007 RMK A01 T00161017  RH  080%=      5-min Rain = 0
KFVS 161215Z 22007KT 02/M02 A3007 RMK A01 T00161017  RH  079%=      5-min Rain = 0
KFVS 161220Z 22007KT 02/M02 A3007 RMK A01 T00161018  RH  079%=      5-min Rain = 0
KFVS 161225Z 22007KT 02/M02 A3007 RMK A01 T00171018  RH  079%=      5-min Rain = 0
KFVS 161230Z 22007KT 02/M02 A3007 RMK A01 T00171019  RH  078%=      5-min Rain = 0
KFVS 161235Z 22007KT 02/M02 A3007 RMK A01 T00181019  RH  078%=      5-min Rain = 0
KFVS 161240Z 22008KT 02/M02 A3007 RMK A01 T00191019  RH  077%=      5-min Rain = 0
KFVS 161245Z 22007KT 02/M02 A3007 RMK A01 T00201019  RH  076%=      5-min Rain = 0
KFVS 161250Z 22007KT 02/M02 A3007 RMK A01 T00201018  RH  076%=      5-min Rain = 0
KFVS 161255Z 22007KT 02/M02 A3007 RMK A01 T00201018  RH  076%=      5-min Rain = 0
KFVS 161300Z 22008KT 02/M02 A3007 RMK A01 T00191019  RH  077%=      5-min Rain = 0
KFVS 161305Z 21008KT 02/M02 A3007 RMK A01 T00181019  RH  078%=      5-min Rain = 0
KFVS 161310Z 21008KT 02/M02 A3007 RMK A01 T00181019  RH  077%=      5-min Rain = 0
KFVS 161315Z 21008KT 02/M02 A3007 RMK A01 T00201019  RH  076%=      5-min Rain = 0
KFVS 161320Z 21009KT 02/M02 A3007 RMK A01 T00191019  RH  076%=      5-min Rain = 0
KFVS 161325Z 21008KT 02/M02 A3007 RMK A01 T00191019  RH  077%=      5-min Rain = 0
KFVS 161330Z 22008KT 02/M02 A3007 RMK A01 T00191018  RH  077%=      5-min Rain = 0
KFVS 161335Z 22007KT 02/M02 A3007 RMK A01 T00201018  RH  077%=      5-min Rain = 0
KFVS 161340Z 22008KT 02/M02 A3007 RMK A01 T00211018  RH  076%=      5-min Rain = 0
KFVS 161345Z 22007KT 02/M02 A3007 RMK A01 T00221018  RH  076%=      5-min Rain = 0
KFVS 161350Z 22007KT 02/M02 A3008 RMK A01 T00231018  RH  076%=      5-min Rain = 0
KFVS 161355Z 22007KT 02/M02 A3008 RMK A01 T00241016  RH  076%=      5-min Rain = 0
KFVS 161400Z 22006KT 03/M02 A3007 RMK A01 T00251015  RH  076%=      5-min Rain = 0
KFVS 161405Z 22006KT 03/M01 A3007 RMK A01 T00261014  RH  076%=      5-min Rain = 0
KFVS 161410Z 22007KT 03/M01 A3007 RMK A01 T00271014  RH  075%=      5-min Rain = 0
KFVS 161415Z 23007KT 03/M01 A3007 RMK A01 T00281012  RH  076%=      5-min Rain = 0
KFVS 161420Z 23006KT 03/M01 A3007 RMK A01 T00301011  RH  075%=      5-min Rain = 0
KFVS 161425Z 22005KT 03/M01 A3007 RMK A01 T00331009  RH  075%=      5-min Rain = 0
KFVS 161430Z 22005KT 04/M01 A3007 RMK A01 T00351008  RH  074%=      5-min Rain = 0
KFVS 161435Z 22005KT 04/M01 A3007 RMK A01 T00381007  RH  073%=      5-min Rain = 0
KFVS 161440Z 22006KT 04/M01 A3007 RMK A01 T00401009  RH  071%=      5-min Rain = 0
KFVS 161445Z 22006KT 04/M01 A3007 RMK A01 T00411009  RH  071%=      5-min Rain = 0
KFVS 161450Z 22005KT 04/M01 A3007 RMK A01 T00401007  RH  073%=      5-min Rain = 0
KFVS 161455Z 22005KT 04/M01 A3007 RMK A01 T00401006  RH  073%=      5-min Rain = 0
KFVS 161500Z 21006KT 04/M01 A3007 RMK A01 T00401008  RH  072%=      5-min Rain = 0
KFVS 161505Z 20005KT 04/M01 A3007 RMK A01 T00371006  RH  074%=      5-min Rain = 0
KFVS 161510Z 20005KT 04/M01 A3008 RMK A01 T00351006  RH  075%=      5-min Rain = 0
KFVS 161515Z 20005KT 03/M01 A3008 RMK A01 T00331007  RH  076%=      5-min Rain = 0
KFVS 161520Z 20005KT 03/M01 A3007 RMK A01 T00321006  RH  077%=      5-min Rain = 0
KFVS 161525Z 20005KT 03/M01 A3007 RMK A01 T00321005  RH  077%=      5-min Rain = 0
KFVS 161530Z 20005KT 03/M00 A3007 RMK A01 T00341004  RH  077%=      5-min Rain = 0
KFVS 161535Z 20004KT 04/M00 A3007 RMK A01 T00361003  RH  076%=      5-min Rain = 0
KFVS 161540Z 20004KT 04/M00 A3007 RMK A01 T00391001  RH  076%=      5-min Rain = 0
KFVS 161545Z 21005KT 04/00 A3007 RMK A01 T00440000  RH  074%=      5-min Rain = 0
KFVS 161550Z 21006KT 05/00 A3007 RMK A01 T00510000  RH  071%=      5-min Rain = 0
KFVS 161555Z 22007KT 06/M00 A3007 RMK A01 T00571002  RH  067%=      5-min Rain = 0
KFVS 161600Z 22008KT 06/M00 A3007 RMK A01 T00621004  RH  063%=      5-min Rain = 0
KFVS 161605Z 22007KT 07/00 A3007 RMK A01 T00690001  RH  062%=      5-min Rain = 0
KFVS 161610Z 22008KT 08/00 A3006 RMK A01 T00760003  RH  061%=      5-min Rain = 0
KFVS 161615Z 22010KT 08/00 A3006 RMK A01 T00780003  RH  060%=      5-min Rain = 0
KFVS 161620Z 21011KT 08/01 A3006 RMK A01 T00760005  RH  062%=      5-min Rain = 0
KFVS 161625Z 21007KT 08/01 A3006 RMK A01 T00760013  RH  065%=      5-min Rain = 0
KFVS 161630Z 21009KT 08/02 A3006 RMK A01 T00830016  RH  064%=      5-min Rain = 0
KFVS 161635Z 20010KT 09/02 A3006 RMK A01 T00900016  RH  061%=      5-min Rain = 0
KFVS 161640Z 22012KT 10/02 A3006 RMK A01 T00950016  RH  058%=      5-min Rain = 0
KFVS 161645Z 20012KT 10/02 A3006 RMK A01 T00990022  RH  059%=      5-min Rain = 0
KFVS 161650Z 20015KT 10/02 A3006 RMK A01 T01010017  RH  057%=      5-min Rain = 0
KFVS 161655Z 21016G21KT 10/01 A3006 RMK A01 T01020012  RH  054%=      5-min Rain = 0
KFVS 161700Z 21016KT 10/01 A3006 RMK A01 T01010010  RH  054%=      5-min Rain = 0
KFVS 161705Z 21015KT 11/02 A3005 RMK A01 T01060015  RH  054%=      5-min Rain = 0
KFVS 161710Z 21016KT 11/01 A3005 RMK A01 T01070013  RH  053%=      5-min Rain = 0
KFVS 161715Z 21014KT 11/02 A3005 RMK A01 T01100017  RH  053%=      5-min Rain = 0
KFVS 161720Z 21015KT 11/01 A3005 RMK A01 T01130014  RH  051%=      5-min Rain = 0
KFVS 161725Z 21014G19KT 12/01 A3004 RMK A01 T01150013  RH  050%=      5-min Rain = 0
KFVS 161730Z 21015KT 12/01 A3004 RMK A01 T01150011  RH  049%=      5-min Rain = 0
KFVS 161735Z 21015G20KT 12/M00 A3004 RMK A01 T01151002  RH  045%=      5-min Rain = 0
KFVS 161740Z 21014KT 12/M00 A3004 RMK A01 T01151001  RH  045%=      5-min Rain = 0
KFVS 161745Z 21014KT 12/00 A3004 RMK A01 T01180000  RH  045%=      5-min Rain = 0
KFVS 161750Z 21012KT 12/01 A3004 RMK A01 T01170005  RH  047%=      5-min Rain = 0
KFVS 161755Z 21012KT 12/01 A3004 RMK A01 T01160008  RH  048%=      5-min Rain = 0
KFVS 161800Z 20012KT 12/01 A3003 RMK A01 T01170009  RH  048%=      5-min Rain = 0
KFVS 161805Z 20012KT 12/00 A3003 RMK A01 T01180004  RH  046%=      5-min Rain = 0
KFVS 161810Z 20011KT 12/00 A3003 RMK A01 T01190000  RH  044%=      5-min Rain = 0
KFVS 161815Z 19009KT 12/01 A3002 RMK A01 T01200009  RH  047%=      5-min Rain = 0
KFVS 161820Z 20015KT 13/M01 A3002 RMK A01 T01251005  RH  041%=      5-min Rain = 0
KFVS 161825Z 20014KT 13/M01 A3002 RMK A01 T01251010  RH  040%=      5-min Rain = 0
KFVS 161830Z 21014KT 13/M01 A3002 RMK A01 T01251011  RH  039%=      5-min Rain = 0
KFVS 161835Z 21014KT 13/M01 A3002 RMK A01 T01251014  RH  039%=      5-min Rain = 0
KFVS 161840Z 21014KT 13/M01 A3001 RMK A01 T01261011  RH  039%=      5-min Rain = 0
KFVS 161845Z 21012KT 13/00 A3001 RMK A01 T01280002  RH  042%=      5-min Rain = 0
KFVS 161850Z 21012KT 13/M00 A3001 RMK A01 T01301004  RH  040%=      5-min Rain = 0
KFVS 161855Z 21012KT 13/01 A30 RMK A01 T01310005  RH  043%=      5-min Rain = 0
KFVS 161900Z 21013KT 13/01 A30 RMK A01 T01340006  RH  042%=      5-min Rain = 0
KFVS 161905Z 21012G17KT 14/01 A2999 RMK A01 T01390005  RH  041%=      5-min Rain = 0
KFVS 161910Z 21013G18KT 15/01 A2999 RMK A01 T01460007  RH  039%=      5-min Rain = 0
KFVS 161915Z 22015G21KT 15/M00 A2999 RMK A01 T01481004  RH  036%=      5-min Rain = 0
KFVS 161920Z 22015G21KT 15/M00 A2999 RMK A01 T01471004  RH  036%=      5-min Rain = 0
KFVS 161925Z 21016G21KT 15/M01 A2999 RMK A01 T01481006  RH  035%=      5-min Rain = 0
KFVS 161930Z 21014G21KT 15/M01 A2998 RMK A01 T01481010  RH  034%=      5-min Rain = 0
KFVS 161935Z 20015G20KT 15/01 A2998 RMK A01 T01500005  RH  038%=      5-min Rain = 0
KFVS 161940Z 21017G25KT 15/01 A2998 RMK A01 T01500006  RH  038%=      5-min Rain = 0
KFVS 161945Z 22016KT 15/01 A2998 RMK A01 T01480005  RH  038%=      5-min Rain = 0
KFVS 161950Z 20017G24KT 15/00 A2997 RMK A01 T01500004  RH  038%=      5-min Rain = 0
KFVS 161955Z 20018KT 15/01 A2997 RMK A01 T01470005  RH  038%=      5-min Rain = 0
KFVS 162000Z 22017G24KT 15/00 A2997 RMK A01 T01460003  RH  038%=      5-min Rain = 0
KFVS 162005Z 20013KT 15/01 A2997 RMK A01 T01450013  RH  041%=      5-min Rain = 0
KFVS 162010Z 21013KT 15/01 A2997 RMK A01 T01470006  RH  039%=      5-min Rain = 0
KFVS 162015Z 20014G24KT 15/01 A2996 RMK A01 T01530006  RH  037%=      5-min Rain = 0
KFVS 162020Z 21015G21KT 16/01 A2996 RMK A01 T01560007  RH  037%=      5-min Rain = 0
KFVS 162025Z 21014KT 16/01 A2996 RMK A01 T01570007  RH  036%=      5-min Rain = 0
KFVS 162030Z 22015KT 16/M00 A2995 RMK A01 T01561002  RH  034%=      5-min Rain = 0
KFVS 162035Z 22016KT 16/M01 A2995 RMK A01 T01561005  RH  033%=      5-min Rain = 0
KFVS 162040Z 22013G21KT 16/00 A2995 RMK A01 T01560002  RH  035%=      5-min Rain = 0
KFVS 162045Z 21016G21KT 16/M00 A2995 RMK A01 T01561003  RH  034%=      5-min Rain = 0
KFVS 162050Z 21016KT 16/M00 A2995 RMK A01 T01551004  RH  034%=      5-min Rain = 0
KFVS 162055Z 22014KT 16/00 A2995 RMK A01 T01560000  RH  035%=      5-min Rain = 0
KFVS 162100Z 22014G19KT 16/00 A2995 RMK A01 T01560002  RH  035%=      5-min Rain = 0
KFVS 162105Z 22014KT 15/00 A2995 RMK A01 T01540003  RH  036%=      5-min Rain = 0
KFVS 162110Z 22014KT 16/00 A2994 RMK A01 T01550003  RH  036%=      5-min Rain = 0
KFVS 162115Z 20015G20KT 15/M00 A2994 RMK A01 T01541001  RH  035%=      5-min Rain = 0
KFVS 162120Z 21015G21KT 16/00 A2994 RMK A01 T01550004  RH  036%=      5-min Rain = 0
KFVS 162125Z 21013G18KT 15/00 A2994 RMK A01 T01540003  RH  036%=      5-min Rain = 0
KFVS 162130Z 22016KT 16/M01 A2994 RMK A01 T01551007  RH  033%=      5-min Rain = 0
KFVS 162135Z 21016KT 15/M01 A2994 RMK A01 T01541008  RH  034%=      5-min Rain = 0
KFVS 162140Z 22014KT 16/M00 A2994 RMK A01 T01551002  RH  035%=      5-min Rain = 0
KFVS 162145Z 23013KT 16/M01 A2994 RMK A01 T01551007  RH  033%=      5-min Rain = 0
KFVS 162150Z 22014KT 15/M01 A2994 RMK A01 T01541008  RH  033%=      5-min Rain = 0
KFVS 162155Z 21013G19KT 16/M01 A2993 RMK A01 T01551009  RH  033%=      5-min Rain = 0
KFVS 162200Z 23013KT 16/M01 A2993 RMK A01 T01561011  RH  032%=      5-min Rain = 0
KFVS 162205Z 22011KT 16/M01 A2993 RMK A01 T01551011  RH  032%=      5-min Rain = 0
KFVS 162210Z 21013KT 15/M02 A2993 RMK A01 T01541019  RH  031%=      5-min Rain = 0
KFVS 162215Z 21011G17KT 15/M01 A2993 RMK A01 T01531013  RH  032%=      5-min Rain = 0
KFVS 162220Z 20011KT 15/M01 A2993 RMK A01 T01491013  RH  033%=      5-min Rain = 0
KFVS 162225Z 20010KT 15/M01 A2993 RMK A01 T01461006  RH  036%=      5-min Rain = 0
KFVS 162230Z 19009KT 15/01 A2993 RMK A01 T01470008  RH  039%=      5-min Rain = 0
KFVS 162235Z 19010KT 15/01 A2993 RMK A01 T01500005  RH  038%=      5-min Rain = 0
KFVS 162240Z 19010KT 15/00 A2992 RMK A01 T01540004  RH  037%=      5-min Rain = 0
KFVS 162245Z 20012KT 16/M00 A2992 RMK A01 T01571001  RH  034%=      5-min Rain = 0
KFVS 162250Z 19013KT 16/01 A2992 RMK A01 T01580005  RH  036%=      5-min Rain = 0
KFVS 162255Z 19013G18KT 16/M00 A2992 RMK A01 T01551001  RH  035%=      5-min Rain = 0
KFVS 162300Z 21012G17KT 15/M01 A2992 RMK A01 T01531007  RH  034%=      5-min Rain = 0
KFVS 162305Z 20012KT 15/M01 A2992 RMK A01 T01491008  RH  035%=      5-min Rain = 0
KFVS 162310Z 20009KT 15/M00 A2992 RMK A01 T01451002  RH  037%=      5-min Rain = 0
KFVS 162315Z 20009KT 14/M01 A2992 RMK A01 T01431006  RH  036%=      5-min Rain = 0
KFVS 162320Z 20008KT 14/M00 A2992 RMK A01 T01431003  RH  037%=      5-min Rain = 0
KFVS 162325Z 20008KT 14/00 A2992 RMK A01 T01400001  RH  039%=      5-min Rain = 0
KFVS 162330Z 19007KT 14/01 A2992 RMK A01 T01360006  RH  041%=      5-min Rain = 0
KFVS 162335Z 19007KT 13/01 A2992 RMK A01 T01320012  RH  045%=      5-min Rain = 0
KFVS 162340Z 19007KT 13/02 A2992 RMK A01 T01290018  RH  047%=      5-min Rain = 0
KFVS 162345Z 20007KT 13/02 A2992 RMK A01 T01260019  RH  048%=      5-min Rain = 0
KFVS 162350Z 20007KT 13/02 A2992 RMK A01 T01250022  RH  050%=      5-min Rain = 0
KFVS 162355Z 20007KT 13/02 A2992 RMK A01 T01250020  RH  049%=      5-min Rain = 0
KFVS 170000Z 20008KT 13/02 A2992 RMK A01 T01270017  RH  048%=      5-min Rain = 0
KFVS 170005Z 20007KT 13/02 A2992 RMK A01 T01280017  RH  047%=      5-min Rain = 0
KFVS 170010Z 20007KT 13/02 A2992 RMK A01 T01280018  RH  048%=      5-min Rain = 0
KFVS 170015Z 19006KT 13/02 A2992 RMK A01 T01250019  RH  049%=      5-min Rain = 0
KFVS 170020Z 18006KT 12/02 A2992 RMK A01 T01200024  RH  052%=      5-min Rain = 0
KFVS 170025Z 19006KT 12/02 A2992 RMK A01 T01170021  RH  052%=      5-min Rain = 0
KFVS 170030Z 18006KT 12/02 A2991 RMK A01 T01150017  RH  052%=      5-min Rain = 0
KFVS 170035Z 17006KT 11/01 A2991 RMK A01 T01130011  RH  050%=      5-min Rain = 0
KFVS 170040Z 16006KT 11/01 A2991 RMK A01 T01110006  RH  049%=      5-min Rain = 0
KFVS 170045Z 16006KT 11/01 A2991 RMK A01 T01110005  RH  049%=      5-min Rain = 0
KFVS 170050Z 16006KT 11/00 A2991 RMK A01 T01090003  RH  048%=      5-min Rain = 0
KFVS 170055Z 17007KT 11/00 A2991 RMK A01 T01060003  RH  050%=      5-min Rain = 0
KFVS 170100Z 17007KT 10/00 A2991 RMK A01 T01040004  RH  051%=      5-min Rain = 0
KFVS 170105Z 17007KT 11/00 A2991 RMK A01 T01050002  RH  049%=      5-min Rain = 0
KFVS 170110Z 17007KT 11/00 A2991 RMK A01 T01050001  RH  049%=      5-min Rain = 0
KFVS 170115Z 16008KT 10/00 A2991 RMK A01 T010300-0  RH  049%=      5-min Rain = 0
KFVS 170120Z 16008KT 10/M00 A2991 RMK A01 T01011002  RH  049%=      5-min Rain = 0
KFVS 170125Z 16008KT 10/M00 A2991 RMK A01 T01001001  RH  050%=      5-min Rain = 0
KFVS 170130Z 16007KT 10/00 A2991 RMK A01 T00990002  RH  051%=      5-min Rain = 0
KFVS 170135Z 16008KT 10/00 A2991 RMK A01 T01010001  RH  050%=      5-min Rain = 0
KFVS 170140Z 16009KT 10/M00 A2991 RMK A01 T01021001  RH  049%=      5-min Rain = 0
KFVS 170145Z 18008KT 10/00 A2991 RMK A01 T01040004  RH  051%=      5-min Rain = 0
KFVS 170150Z 18008KT 10/01 A2991 RMK A01 T01000008  RH  053%=      5-min Rain = 0
KFVS 170155Z 17008KT 10/01 A2991 RMK A01 T00980009  RH  055%=      5-min Rain = 0
KFVS 170200Z 17008KT 09/01 A2991 RMK A01 T00940011  RH  057%=      5-min Rain = 0
KFVS 170205Z 17008KT 09/01 A2991 RMK A01 T00900010  RH  058%=      5-min Rain = 0
KFVS 170210Z 17008KT 09/01 A2991 RMK A01 T00910005  RH  056%=      5-min Rain = 0
KFVS 170215Z 17008KT 09/00 A2991 RMK A01 T00890002  RH  055%=      5-min Rain = 0
KFVS 170220Z 16008KT 09/00 A2991 RMK A01 T00900001  RH  054%=      5-min Rain = 0
KFVS 170225Z 16008KT 09/00 A2991 RMK A01 T00910001  RH  054%=      5-min Rain = 0
KFVS 170230Z 16008KT 09/00 A2991 RMK A01 T00880001  RH  055%=      5-min Rain = 0
KFVS 170235Z 16008KT 09/00 A2991 RMK A01 T00860002  RH  056%=      5-min Rain = 0
KFVS 170240Z 17008KT 09/01 A2991 RMK A01 T00850005  RH  058%=      5-min Rain = 0
KFVS 170245Z 17008KT 09/01 A299 RMK A01 T00870007  RH  058%=      5-min Rain = 0
KFVS 170250Z 16008KT 09/01 A299 RMK A01 T00860005  RH  057%=      5-min Rain = 0
KFVS 170255Z 16009KT 08/01 A299 RMK A01 T00800006  RH  060%=      5-min Rain = 0
KFVS 170300Z 16009KT 08/01 A299 RMK A01 T00820010  RH  061%=      5-min Rain = 0
KFVS 170305Z 16009KT 09/01 A299 RMK A01 T00870012  RH  060%=      5-min Rain = 0
KFVS 170310Z 17008KT 09/01 A299 RMK A01 T00870012  RH  060%=      5-min Rain = 0
KFVS 170315Z 17008KT 08/01 A299 RMK A01 T00840013  RH  061%=      5-min Rain = 0
KFVS 170320Z 17008KT 08/01 A299 RMK A01 T00820013  RH  063%=      5-min Rain = 0
KFVS 170325Z 17007KT 08/01 A299 RMK A01 T00800014  RH  064%=      5-min Rain = 0
KFVS 170330Z 17007KT 08/01 A299 RMK A01 T00800013  RH  063%=      5-min Rain = 0
KFVS 170335Z 17008KT 08/01 A299 RMK A01 T00790011  RH  063%=      5-min Rain = 0
KFVS 170340Z 17008KT 08/01 A299 RMK A01 T00780011  RH  064%=      5-min Rain = 0
KFVS 170345Z 16007KT 08/01 A299 RMK A01 T00770011  RH  064%=      5-min Rain = 0
KFVS 170350Z 16008KT 08/01 A299 RMK A01 T00750010  RH  064%=      5-min Rain = 0
KFVS 170355Z 15008KT 07/01 A299 RMK A01 T00700009  RH  066%=      5-min Rain = 0
KFVS 170400Z 15009KT 07/01 A299 RMK A01 T00680011  RH  068%=      5-min Rain = 0
KFVS 170405Z 16009KT 07/01 A299 RMK A01 T00690013  RH  069%=      5-min Rain = 0
KFVS 170410Z 17009KT 07/02 A299 RMK A01 T00720016  RH  068%=      5-min Rain = 0
KFVS 170415Z 16009KT 07/02 A299 RMK A01 T00730017  RH  068%=      5-min Rain = 0
KFVS 170420Z 17009KT 07/02 A299 RMK A01 T00720017  RH  069%=      5-min Rain = 0
KFVS 170425Z 17009KT 07/02 A299 RMK A01 T00720017  RH  069%=      5-min Rain = 0
KFVS 170430Z 17009KT 07/02 A299 RMK A01 T00710017  RH  069%=      5-min Rain = 0
KFVS 170435Z 16009KT 07/02 A299 RMK A01 T00700016  RH  069%=      5-min Rain = 0
KFVS 170440Z 17010KT 07/02 A2989 RMK A01 T00690015  RH  070%=      5-min Rain = 0
KFVS 170445Z 17011KT 07/02 A2989 RMK A01 T00690015  RH  069%=      5-min Rain = 0
KFVS 170450Z 17011KT 07/02 A2989 RMK A01 T00700016  RH  069%=      5-min Rain = 0
KFVS 170455Z 17011KT 07/02 A2989 RMK A01 T00720015  RH  068%=      5-min Rain = 0
KFVS 170500Z 17011KT 07/02 A2989 RMK A01 T00710015  RH  068%=      5-min Rain = 0
KFVS 170505Z 17011KT 07/02 A2989 RMK A01 T00680016  RH  070%=      5-min Rain = 0
KFVS 170510Z 17011KT 07/02 A2989 RMK A01 T00670016  RH  071%=      5-min Rain = 0
KFVS 170515Z 18011KT 07/02 A2988 RMK A01 T00670016  RH  071%=      5-min Rain = 0
KFVS 170520Z 18011KT 07/02 A2988 RMK A01 T00690016  RH  069%=      5-min Rain = 0
KFVS 170525Z 19012KT 07/02 A2988 RMK A01 T00720015  RH  068%=      5-min Rain = 0
KFVS 170530Z 18011KT 07/02 A2988 RMK A01 T00730015  RH  068%=      5-min Rain = 0
KFVS 170535Z 18009KT 07/02 A2988 RMK A01 T00700015  RH  069%=      5-min Rain = 0
KFVS 170540Z 17009KT 07/02 A2988 RMK A01 T00670015  RH  070%=      5-min Rain = 0
KFVS 170545Z 18009KT 07/01 A2988 RMK A01 T00650014  RH  071%=      5-min Rain = 0
KFVS 170550Z 16008KT 06/01 A2988 RMK A01 T00630013  RH  072%=      5-min Rain = 0
KFVS 170555Z 17007KT 06/01 A2988 RMK A01 T00590013  RH  073%=      5-min Rain = 0

Page generated in 0.0093 seconds.